Time;durP1;ratioP1;P1;durP2;ratioP2;P2;SDS_P1;SDS_P2;PMS_P1;PMS_P2;Temp;Humidity;BMP_temperature;BMP_pressure;BME280_temperature;BME280_humidity;BME280_pressure;Samples;Min_cycle;Max_cycle;Signal;HPM_P1;HPM_P2
2022/09/21 00:01:16;;;;;;;0.10;0.10;;;7.70;99.90;;;;;;5065623;28;20051;-83
2022/09/21 00:03:44;;;;;;;0.10;0.10;;;7.80;99.90;;;;;;5062120;28;20036;-84
2022/09/21 00:06:13;;;;;;;0.00;0.00;;;7.70;99.90;;;;;;5060953;28;20466;-84
2022/09/21 00:08:40;;;;;;;0.10;0.10;;;7.70;99.90;;;;;;5063988;28;20052;-83
2022/09/21 00:11:10;;;;;;;0.10;0.10;;;7.70;99.90;;;;;;5063380;28;20075;-84
2022/09/21 00:13:38;;;;;;;0.10;0.10;;;7.60;99.90;;;;;;5057135;28;20045;-84
2022/09/21 00:16:05;;;;;;;0.10;0.10;;;7.50;99.90;;;;;;5062621;28;20392;-84
2022/09/21 00:18:34;;;;;;;0.10;0.10;;;7.60;99.90;;;;;;5068163;28;20048;-84
2022/09/21 00:21:05;;;;;;;0.10;0.10;;;7.60;99.90;;;;;;5063940;28;20051;-84
2022/09/21 00:23:34;;;;;;;0.10;0.10;;;7.60;99.90;;;;;;5076470;28;20595;-84
2022/09/21 00:26:06;;;;;;;0.10;0.10;;;7.50;99.90;;;;;;5070119;28;20036;-83
2022/09/21 00:28:33;;;;;;;0.10;0.10;;;;;;;;;;5074301;28;20044;-85
2022/09/21 00:31:03;;;;;;;0.10;0.10;;;7.50;99.90;;;;;;5065086;28;20040;-84
2022/09/21 00:33:31;;;;;;;0.10;0.10;;;;;;;;;;5072011;28;20070;-84
2022/09/21 00:36:02;;;;;;;0.05;0.05;;;7.60;99.90;;;;;;5064088;28;20051;-84
2022/09/21 00:38:28;;;;;;;0.10;0.10;;;7.60;99.90;;;;;;5061258;28;20045;-83
2022/09/21 00:40:55;;;;;;;0.10;0.10;;;;;;;;;;5059332;28;20068;-83
2022/09/21 00:43:22;;;;;;;0.10;0.10;;;7.50;99.90;;;;;;5063412;28;20484;-84
2022/09/21 00:45:54;;;;;;;0.10;0.10;;;7.50;99.90;;;;;;5062744;28;20207;-83
2022/09/21 00:48:22;;;;;;;0.10;0.10;;;7.50;99.90;;;;;;5060368;28;20485;-84
2022/09/21 00:50:53;;;;;;;0.10;0.10;;;7.40;99.90;;;;;;5067813;28;20096;-83
2022/09/21 00:53:21;;;;;;;0.10;0.10;;;7.40;99.90;;;;;;5069000;28;20131;-84
2022/09/21 00:55:50;;;;;;;0.00;0.00;;;7.40;99.90;;;;;;5062160;28;20139;-83
2022/09/21 00:58:24;;;;;;;0.10;0.10;;;7.40;99.90;;;;;;5058723;28;20508;-82
2022/09/21 01:00:52;;;;;;;0.10;0.10;;;7.40;99.90;;;;;;5068494;28;20044;-84
2022/09/21 01:03:19;;;;;;;0.10;0.10;;;7.30;99.90;;;;;;5068952;28;20067;-83
2022/09/21 01:05:47;;;;;;;0.10;0.10;;;7.30;99.90;;;;;;5066780;28;20048;-84
2022/09/21 01:08:16;;;;;;;0.10;0.10;;;7.30;99.90;;;;;;5059914;28;20497;-84
2022/09/21 01:10:59;;;;;;;0.10;0.10;;;7.30;99.90;;;;;;5061217;28;20037;-83
2022/09/21 01:13:36;;;;;;;0.10;0.10;;;7.20;99.90;;;;;;5063178;28;20048;-83
2022/09/21 01:16:08;;;;;;;0.10;0.10;;;7.20;99.90;;;;;;5056407;28;20088;-84
2022/09/21 01:18:44;;;;;;;0.10;0.10;;;7.30;99.90;;;;;;5066167;28;20045;-84
2022/09/21 01:21:22;;;;;;;0.10;0.10;;;7.30;99.90;;;;;;5070208;28;20127;-84
2022/09/21 01:24:15;;;;;;;0.10;0.10;;;7.30;99.90;;;;;;5066767;28;20317;-83
2022/09/21 01:27:01;;;;;;;0.10;0.10;;;7.30;99.90;;;;;;5062142;28;20048;-84
2022/09/21 01:29:31;;;;;;;0.10;0.10;;;7.30;99.90;;;;;;5068939;28;20156;-84
2022/09/21 01:32:05;;;;;;;0.10;0.10;;;7.20;99.90;;;;;;5062854;28;20045;-84
2022/09/21 01:34:37;;;;;;;0.10;0.10;;;7.20;99.90;;;;;;5063636;28;20047;-83
2022/09/21 01:37:09;;;;;;;0.10;0.10;;;7.10;99.90;;;;;;5075429;28;20068;-84
2022/09/21 01:39:38;;;;;;;0.10;0.10;;;7.10;99.90;;;;;;5063000;28;20025;-83
2022/09/21 01:42:07;;;;;;;0.10;0.10;;;7.10;99.90;;;;;;5067273;28;20045;-84
2022/09/21 01:44:38;;;;;;;0.10;0.10;;;7.00;99.90;;;;;;5060239;28;20047;-84
2022/09/21 01:47:08;;;;;;;0.10;0.10;;;7.00;99.90;;;;;;5058724;28;20055;-83
2022/09/21 01:49:38;;;;;;;0.10;0.10;;;7.10;99.90;;;;;;5065568;28;20047;-85
2022/09/21 01:52:13;;;;;;;0.10;0.10;;;7.10;99.90;;;;;;5063665;28;20055;-84
2022/09/21 01:54:44;;;;;;;0.10;0.10;;;7.00;99.90;;;;;;5065103;28;20044;-83
2022/09/21 01:57:18;;;;;;;0.10;0.10;;;6.90;99.90;;;;;;5073338;28;20124;-83
2022/09/21 01:59:51;;;;;;;0.10;0.10;;;6.80;99.90;;;;;;5060883;28;20519;-84
2022/09/21 02:02:23;;;;;;;0.10;0.10;;;6.80;99.90;;;;;;5064667;28;20028;-83
2022/09/21 02:04:50;;;;;;;0.10;0.10;;;6.90;99.90;;;;;;5066084;28;20515;-83
2022/09/21 02:07:17;;;;;;;0.10;0.10;;;6.70;99.90;;;;;;5063362;28;20052;-83
2022/09/21 02:09:46;;;;;;;0.10;0.10;;;6.70;99.90;;;;;;5066324;28;20040;-84
2022/09/21 02:12:13;;;;;;;0.10;0.10;;;6.60;99.90;;;;;;5060577;28;20117;-84
2022/09/21 02:14:45;;;;;;;0.10;0.10;;;;;;;;;;5059917;28;20044;-83
2022/09/21 02:17:30;;;;;;;0.10;0.10;;;6.50;99.90;;;;;;5059714;28;20055;-84
2022/09/21 02:20:06;;;;;;;0.10;0.10;;;6.60;99.90;;;;;;5057179;28;20036;-83
2022/09/21 02:22:39;;;;;;;0.10;0.10;;;6.60;99.90;;;;;;5071499;28;20048;-83
2022/09/21 02:25:09;;;;;;;0.10;0.10;;;6.60;99.90;;;;;;5065792;28;20044;-83
2022/09/21 02:27:44;;;;;;;0.00;0.00;;;6.60;99.90;;;;;;5068428;28;20044;-84
2022/09/21 02:30:15;;;;;;;0.10;0.10;;;6.60;99.90;;;;;;5061816;28;20044;-83
2022/09/21 02:32:49;;;;;;;0.10;0.10;;;6.70;99.90;;;;;;5070520;28;20497;-84
2022/09/21 02:35:27;;;;;;;0.10;0.10;;;6.60;99.90;;;;;;5061419;28;20110;-83
2022/09/21 02:38:03;;;;;;;0.10;0.10;;;6.70;99.90;;;;;;5064297;28;20054;-83
2022/09/21 02:40:35;;;;;;;0.08;0.08;;;6.70;99.90;;;;;;5059851;28;20037;-83
2022/09/21 02:43:08;;;;;;;0.10;0.10;;;6.80;99.90;;;;;;5059508;28;20119;-84
2022/09/21 02:45:41;;;;;;;0.10;0.10;;;6.70;99.90;;;;;;5063486;28;20033;-83
2022/09/21 02:48:14;;;;;;;0.10;0.10;;;6.70;99.90;;;;;;5065048;28;20044;-84
2022/09/21 02:50:44;;;;;;;0.20;0.20;;;6.60;99.90;;;;;;5058823;28;20394;-84
2022/09/21 02:53:13;;;;;;;0.10;0.10;;;6.50;99.90;;;;;;5061078;28;20059;-84
2022/09/21 02:55:41;;;;;;;0.10;0.10;;;6.50;99.90;;;;;;5060965;28;20083;-83
2022/09/21 02:58:11;;;;;;;0.10;0.10;;;6.50;99.90;;;;;;5060184;28;20044;-84
2022/09/21 03:00:38;;;;;;;0.10;0.10;;;6.40;99.90;;;;;;5064447;28;20413;-83
2022/09/21 03:03:16;;;;;;;0.03;0.03;;;6.40;99.90;;;;;;5066355;28;20527;-84
2022/09/21 03:05:44;;;;;;;0.10;0.10;;;6.40;99.90;;;;;;5070170;28;20036;-84
2022/09/21 03:08:11;;;;;;;0.10;0.10;;;6.40;99.90;;;;;;5062875;28;20100;-83
2022/09/21 03:10:39;;;;;;;0.10;0.10;;;6.40;99.90;;;;;;5087290;22;20068;-78
2022/09/21 03:13:07;;;;;;;0.17;0.17;;;6.40;99.90;;;;;;5046419;28;20048;-77
2022/09/21 03:15:34;;;;;;;0.10;0.10;;;6.40;99.90;;;;;;5043843;28;20044;-80
2022/09/21 03:18:03;;;;;;;0.10;0.10;;;6.40;99.90;;;;;;5044321;28;20049;-79
2022/09/21 03:20:32;;;;;;;0.10;0.10;;;6.50;99.90;;;;;;5047214;28;20047;-78
2022/09/21 03:22:59;;;;;;;0.10;0.10;;;6.40;99.90;;;;;;5044854;28;20047;-78
2022/09/21 03:25:26;;;;;;;0.10;0.10;;;6.50;99.90;;;;;;5046930;28;20037;-78
2022/09/21 03:27:54;;;;;;;0.10;0.10;;;6.50;99.90;;;;;;5046540;28;20048;-80
2022/09/21 03:30:21;;;;;;;0.15;0.15;;;6.50;99.90;;;;;;5051879;28;20710;-78
2022/09/21 03:32:49;;;;;;;0.20;0.20;;;6.50;99.90;;;;;;5047663;28;20044;-77
2022/09/21 03:35:16;;;;;;;0.10;0.10;;;6.50;99.90;;;;;;5045936;28;20043;-80
2022/09/21 03:37:45;;;;;;;0.10;0.10;;;6.50;99.90;;;;;;5047276;28;20040;-78
2022/09/21 03:40:12;;;;;;;0.28;0.20;;;6.50;99.90;;;;;;5049957;28;20048;-78
2022/09/21 03:42:39;;;;;;;0.10;0.10;;;6.60;99.90;;;;;;5049136;28;20045;-78
2022/09/21 03:45:08;;;;;;;0.10;0.10;;;6.60;99.90;;;;;;5048349;28;20074;-77
2022/09/21 03:47:34;;;;;;;0.10;0.10;;;6.60;99.90;;;;;;5052841;28;20043;-77
2022/09/21 03:50:01;;;;;;;0.13;0.13;;;6.60;99.90;;;;;;5062663;28;20066;-78
2022/09/21 03:52:38;;;;;;;0.13;0.13;;;6.60;99.90;;;;;;5051545;28;20044;-78
2022/09/21 03:55:08;;;;;;;0.20;0.20;;;6.60;99.90;;;;;;5047113;28;20467;-77
2022/09/21 03:57:35;;;;;;;;;;;6.60;99.90;;;;;;5051815;28;20045;-76
2022/09/21 04:00:03;;;;;;;0.10;0.10;;;6.70;99.90;;;;;;5052427;28;19925;-80
2022/09/21 04:02:30;;;;;;;0.10;0.10;;;6.80;99.90;;;;;;5051909;28;20118;-77
2022/09/21 04:04:57;;;;;;;0.10;0.10;;;6.70;99.90;;;;;;5050350;28;20072;-80
2022/09/21 04:07:25;;;;;;;0.20;0.20;;;6.70;99.90;;;;;;5045495;28;20047;-79
2022/09/21 04:09:52;;;;;;;0.10;0.10;;;6.70;99.90;;;;;;5042693;28;20071;-78
2022/09/21 04:12:21;;;;;;;0.20;0.20;;;6.70;99.90;;;;;;5045050;28;20033;-78
2022/09/21 04:14:48;;;;;;;0.20;0.20;;;6.80;99.90;;;;;;5048852;28;20052;-79
2022/09/21 04:17:15;;;;;;;0.40;0.30;;;6.80;99.90;;;;;;5051434;28;20059;-78
2022/09/21 04:19:43;;;;;;;0.52;0.40;;;6.80;99.90;;;;;;5054558;28;20033;-78
2022/09/21 04:22:11;;;;;;;0.30;0.30;;;6.90;99.90;;;;;;5044571;28;20053;-79
2022/09/21 04:24:41;;;;;;;0.20;0.20;;;6.90;99.90;;;;;;5049721;28;20033;-80
2022/09/21 04:27:08;;;;;;;0.47;0.30;;;6.90;99.90;;;;;;5043222;28;20412;-78
2022/09/21 04:29:36;;;;;;;0.50;0.40;;;6.90;99.90;;;;;;5045036;28;20045;-80
2022/09/21 04:32:04;;;;;;;0.13;0.13;;;7.00;99.90;;;;;;5046755;28;20036;-80
2022/09/21 04:34:31;;;;;;;0.20;0.20;;;7.00;99.90;;;;;;5047851;28;20524;-80
2022/09/21 04:36:58;;;;;;;0.20;0.20;;;7.00;99.90;;;;;;5049176;28;20416;-78
2022/09/21 04:39:25;;;;;;;0.52;0.40;;;6.90;99.90;;;;;;5045567;28;20055;-78
2022/09/21 04:41:52;;;;;;;0.40;0.40;;;7.00;99.90;;;;;;5043562;28;20055;-79
2022/09/21 04:44:18;;;;;;;0.35;0.30;;;6.90;99.90;;;;;;5047838;28;20041;-78
2022/09/21 04:46:47;;;;;;;0.20;0.20;;;6.90;99.90;;;;;;5046961;28;20055;-78
2022/09/21 04:49:14;;;;;;;0.20;0.20;;;7.00;99.90;;;;;;5043914;28;20043;-80
2022/09/21 04:51:41;;;;;;;0.65;0.40;;;7.10;99.90;;;;;;5043763;28;20055;-79
2022/09/21 04:54:07;;;;;;;0.40;0.30;;;7.10;99.90;;;;;;5043523;28;20063;-79
2022/09/21 04:56:34;;;;;;;0.15;0.15;;;7.00;99.90;;;;;;5046925;28;20151;-79
2022/09/21 04:59:01;;;;;;;0.10;0.10;;;7.10;99.90;;;;;;5044609;28;20047;-79
2022/09/21 05:01:27;;;;;;;0.13;0.13;;;6.90;99.90;;;;;;5046990;28;20093;-79
2022/09/21 05:04:00;;;;;;;0.20;0.20;;;7.00;99.90;;;;;;5048174;28;20059;-79
2022/09/21 05:06:27;;;;;;;0.10;0.10;;;6.80;99.90;;;;;;5047370;28;20115;-81
2022/09/21 05:11:40;;;;;;;0.20;0.20;;;6.80;99.90;;;;;;5045047;28;20519;-78
2022/09/21 05:14:07;;;;;;;0.10;0.10;;;6.80;99.90;;;;;;5053622;28;20065;-80
2022/09/21 05:16:34;;;;;;;0.22;0.22;;;6.80;99.90;;;;;;5047545;28;20052;-78
2022/09/21 05:19:02;;;;;;;0.10;0.10;;;6.80;99.90;;;;;;5042195;28;20052;-79
2022/09/21 05:21:30;;;;;;;0.20;0.20;;;6.80;99.90;;;;;;5051372;28;20386;-79
2022/09/21 05:23:57;;;;;;;0.10;0.10;;;6.70;99.90;;;;;;5049370;28;20072;-79
2022/09/21 05:26:24;;;;;;;0.10;0.10;;;6.80;99.90;;;;;;5047409;28;20037;-79
2022/09/21 05:28:51;;;;;;;0.20;0.20;;;6.80;99.90;;;;;;5052858;28;20033;-79
2022/09/21 05:31:30;;;;;;;0.10;0.10;;;6.80;99.90;;;;;;5047982;28;20036;-80
2022/09/21 05:34:05;;;;;;;0.20;0.20;;;6.80;99.90;;;;;;5046092;28;20053;-78
2022/09/21 05:36:42;;;;;;;0.15;0.15;;;7.20;99.90;;;;;;5038555;28;20056;-80
2022/09/21 05:39:10;;;;;;;0.20;0.20;;;6.90;99.90;;;;;;5045919;28;20052;-82
2022/09/21 05:41:37;;;;;;;0.10;0.10;;;6.90;99.90;;;;;;5042790;28;20037;-80
2022/09/21 05:44:05;;;;;;;0.15;0.15;;;7.00;99.90;;;;;;5046278;28;20538;-77
2022/09/21 05:46:37;;;;;;;0.30;0.30;;;7.00;99.90;;;;;;5046419;28;20064;-78
2022/09/21 05:49:15;;;;;;;0.52;0.43;;;7.00;99.90;;;;;;5055308;28;20456;-78
2022/09/21 05:51:54;;;;;;;0.70;0.50;;;6.90;99.90;;;;;;5059139;28;20431;-78
2022/09/21 05:54:31;;;;;;;0.52;0.50;;;7.00;99.90;;;;;;5057447;28;20051;-78
2022/09/21 05:57:04;;;;;;;0.45;0.45;;;7.10;99.90;;;;;;5064674;28;20055;-78
2022/09/21 05:59:46;;;;;;;0.80;0.60;;;7.10;99.90;;;;;;5052873;28;20489;-81
2022/09/21 06:02:23;;;;;;;0.40;0.40;;;7.20;99.90;;;;;;5057508;28;20485;-78
2022/09/21 06:04:55;;;;;;;0.70;0.50;;;7.20;99.90;;;;;;5058695;28;20500;-79
2022/09/21 06:07:22;;;;;;;0.90;0.68;;;7.30;99.90;;;;;;5062595;28;20033;-81
2022/09/21 06:09:48;;;;;;;0.60;0.50;;;7.30;99.90;;;;;;5065423;28;20067;-80
2022/09/21 06:12:15;;;;;;;0.30;0.30;;;7.30;99.90;;;;;;5059886;28;20051;-79
2022/09/21 06:14:43;;;;;;;0.20;0.20;;;7.30;99.90;;;;;;5060426;28;20097;-78
2022/09/21 06:17:10;;;;;;;0.30;0.20;;;7.40;99.90;;;;;;5053523;28;20564;-81
2022/09/21 06:19:36;;;;;;;0.30;0.30;;;7.40;99.90;;;;;;5046170;28;20029;-78
2022/09/21 06:22:04;;;;;;;0.20;0.20;;;7.40;99.90;;;;;;5063501;28;20044;-79
2022/09/21 06:24:31;;;;;;;0.30;0.30;;;7.50;99.90;;;;;;5058551;28;20035;-81
2022/09/21 06:26:58;;;;;;;0.20;0.20;;;7.40;99.90;;;;;;5056343;28;20050;-80
2022/09/21 06:29:25;;;;;;;0.10;0.10;;;7.40;99.90;;;;;;5058759;28;20047;-78
2022/09/21 06:31:51;;;;;;;0.20;0.20;;;7.40;99.90;;;;;;5052126;28;20038;-78
2022/09/21 06:34:18;;;;;;;0.17;0.17;;;7.50;99.90;;;;;;5053411;28;20461;-78
2022/09/21 06:36:45;;;;;;;0.20;0.20;;;7.60;99.90;;;;;;5063185;28;20467;-80
2022/09/21 06:39:13;;;;;;;0.32;0.32;;;7.60;99.90;;;;;;5060237;28;20101;-80
2022/09/21 06:41:40;;;;;;;0.28;0.28;;;7.60;99.90;;;;;;5059282;28;20037;-80
2022/09/21 06:44:06;;;;;;;0.30;0.30;;;7.70;99.90;;;;;;5060000;28;20115;-78
2022/09/21 06:46:33;;;;;;;0.20;0.20;;;7.70;99.90;;;;;;5055533;28;20582;-80
2022/09/21 06:49:00;;;;;;;0.10;0.10;;;7.70;99.90;;;;;;5050757;28;20433;-80
2022/09/21 06:51:27;;;;;;;0.30;0.30;;;7.80;99.90;;;;;;5059604;28;20055;-80
2022/09/21 06:53:55;;;;;;;0.40;0.40;;;7.90;99.90;;;;;;5065021;28;20120;-81
2022/09/21 06:56:24;;;;;;;0.30;0.30;;;7.80;99.90;;;;;;5065229;28;20462;-79
2022/09/21 06:58:51;;;;;;;0.20;0.20;;;7.80;99.90;;;;;;5057892;28;20051;-80
2022/09/21 07:01:18;;;;;;;0.40;0.40;;;7.90;99.90;;;;;;5065705;28;20462;-80
2022/09/21 07:03:49;;;;;;;0.20;0.20;;;7.80;99.90;;;;;;5051296;28;20056;-80
2022/09/21 07:06:16;;;;;;;;;;;7.90;99.90;;;;;;5063556;28;20106;-78
2022/09/21 07:08:43;;;;;;;0.98;0.68;;;7.90;99.90;;;;;;5055384;28;19927;-78
2022/09/21 07:11:31;;;;;;;0.30;0.30;;;7.90;99.90;;;;;;5053453;28;20091;-80
2022/09/21 07:13:58;;;;;;;0.77;0.70;;;8.00;99.90;;;;;;5067685;28;20088;-80
2022/09/21 07:16:26;;;;;;;0.65;0.47;;;7.90;99.90;;;;;;5057090;28;20132;-80
2022/09/21 07:18:53;;;;;;;0.40;0.40;;;7.80;99.90;;;;;;5062211;28;20045;-78
2022/09/21 07:21:20;;;;;;;0.30;0.30;;;7.80;99.90;;;;;;5060884;28;20037;-78
2022/09/21 07:23:47;;;;;;;0.30;0.30;;;7.90;99.90;;;;;;5060185;28;20080;-79
2022/09/21 07:26:14;;;;;;;0.38;0.38;;;8.00;99.90;;;;;;5054194;28;20045;-78
2022/09/21 07:28:42;;;;;;;0.57;0.50;;;8.20;99.90;;;;;;5066794;28;20492;-78
2022/09/21 07:31:12;;;;;;;0.30;0.30;;;8.10;99.90;;;;;;5054155;28;20060;-78
2022/09/21 07:33:40;;;;;;;0.30;0.30;;;8.20;99.90;;;;;;5065181;28;20079;-80
2022/09/21 07:36:10;;;;;;;0.30;0.30;;;8.00;99.90;;;;;;5065744;28;20047;-78
2022/09/21 07:38:38;;;;;;;;;;;8.20;99.90;;;;;;5066194;28;20051;-78
2022/09/21 07:41:06;;;;;;;0.20;0.20;;;8.20;99.90;;;;;;5045008;28;20396;-78
2022/09/21 07:43:33;;;;;;;0.30;0.30;;;8.40;99.90;;;;;;5049796;28;20076;-78
2022/09/21 07:46:01;;;;;;;0.30;0.30;;;8.40;99.90;;;;;;5041138;28;20036;-79
2022/09/21 07:48:29;;;;;;;0.40;0.40;;;8.30;99.90;;;;;;5052570;28;20460;-78
2022/09/21 07:51:02;;;;;;;0.20;0.20;;;8.60;99.90;;;;;;5057426;28;20415;-79
2022/09/21 07:53:30;;;;;;;0.28;0.28;;;8.80;99.90;;;;;;5064854;28;20059;-78
2022/09/21 07:56:00;;;;;;;0.20;0.20;;;8.80;99.90;;;;;;5059120;28;20067;-80
2022/09/21 08:01:13;;;;;;;0.10;0.10;;;8.90;99.90;;;;;;5052413;28;19932;-77
2022/09/21 08:03:40;;;;;;;0.10;0.10;;;8.90;99.90;;;;;;5054706;28;20047;-80
2022/09/21 08:06:08;;;;;;;0.38;0.38;;;9.00;99.90;;;;;;5065003;28;20037;-80
2022/09/21 08:08:35;;;;;;;0.20;0.20;;;9.10;99.90;;;;;;5050414;28;20049;-81
2022/09/21 08:11:02;;;;;;;0.10;0.10;;;9.10;99.90;;;;;;5058842;28;20051;-81
2022/09/21 08:13:30;;;;;;;0.20;0.20;;;9.30;99.90;;;;;;5062336;28;20057;-78
2022/09/21 08:15:58;;;;;;;0.15;0.15;;;9.40;99.90;;;;;;5055850;28;20041;-81
2022/09/21 08:18:26;;;;;;;0.32;0.32;;;9.50;99.90;;;;;;5057530;28;20053;-78
2022/09/21 08:20:53;;;;;;;0.10;0.10;;;9.30;99.90;;;;;;5061866;28;20423;-80
2022/09/21 08:23:20;;;;;;;0.20;0.20;;;9.20;99.90;;;;;;5053273;28;20053;-78
2022/09/21 08:25:47;;;;;;;0.20;0.20;;;9.30;99.90;;;;;;5060167;28;20497;-79
2022/09/21 08:28:14;;;;;;;0.10;0.10;;;9.50;99.90;;;;;;5059396;28;20045;-79
2022/09/21 08:30:41;;;;;;;0.15;0.15;;;9.50;99.90;;;;;;5064688;28;20041;-80
2022/09/21 08:33:07;;;;;;;0.10;0.10;;;9.60;99.90;;;;;;5062925;28;20469;-80
2022/09/21 08:35:36;;;;;;;0.10;0.10;;;9.70;99.90;;;;;;5053023;28;20037;-75
2022/09/21 08:38:02;;;;;;;0.25;0.25;;;9.80;99.90;;;;;;5066167;28;20048;-79
2022/09/21 08:40:30;;;;;;;0.10;0.10;;;9.70;99.90;;;;;;5064599;28;20529;-81
2022/09/21 08:43:00;;;;;;;0.10;0.10;;;9.80;99.90;;;;;;5064708;28;20041;-78
2022/09/21 08:45:31;;;;;;;0.10;0.10;;;9.80;99.90;;;;;;5059147;28;20041;-80
2022/09/21 08:48:01;;;;;;;0.10;0.10;;;9.80;99.90;;;;;;5067672;28;20052;-80
2022/09/21 08:50:34;;;;;;;0.05;0.05;;;9.70;99.90;;;;;;5054279;28;20049;-80
2022/09/21 08:53:06;;;;;;;0.10;0.10;;;9.90;99.90;;;;;;5058506;28;20481;-80
2022/09/21 08:55:33;;;;;;;0.10;0.10;;;10.00;99.90;;;;;;5063967;28;20033;-81
2022/09/21 08:58:00;;;;;;;0.10;0.10;;;10.30;99.90;;;;;;5057394;28;20395;-79
2022/09/21 09:00:30;;;;;;;0.10;0.10;;;10.20;99.90;;;;;;5066070;28;20037;-79
2022/09/21 09:03:29;;;;;;;0.10;0.10;;;10.20;99.90;;;;;;5060586;28;20714;-79
2022/09/21 09:06:00;;;;;;;0.10;0.10;;;10.30;99.90;;;;;;5050831;28;20532;-80
2022/09/21 09:08:51;;;;;;;0.20;0.20;;;10.20;99.90;;;;;;5059136;28;20047;-79
2022/09/21 09:11:33;;;;;;;0.00;0.00;;;10.20;99.90;;;;;;5099301;22;20044;-85
2022/09/21 09:14:16;;;;;;;0.10;0.10;;;10.20;99.90;;;;;;5092920;28;20071;-85
2022/09/21 09:16:51;;;;;;;0.10;0.10;;;10.20;99.90;;;;;;5092621;28;20054;-83
2022/09/21 09:19:22;;;;;;;0.10;0.10;;;10.30;99.90;;;;;;5103967;28;20517;-85
2022/09/21 09:21:50;;;;;;;0.03;0.03;;;;;;;;;;5094185;28;20047;-87
2022/09/21 09:24:29;;;;;;;0.10;0.10;;;10.50;99.90;;;;;;5085186;28;20040;-85
2022/09/21 09:27:01;;;;;;;0.10;0.10;;;10.60;99.90;;;;;;5086770;28;20069;-85
2022/09/21 09:29:32;;;;;;;0.00;0.00;;;10.90;99.90;;;;;;5095766;28;20070;-86
2022/09/21 09:32:00;;;;;;;0.10;0.10;;;10.90;99.90;;;;;;5086873;28;20036;-86
2022/09/21 09:34:31;;;;;;;0.00;0.00;;;11.10;99.90;;;;;;5091160;28;20110;-85
2022/09/21 09:37:01;;;;;;;0.00;0.00;;;13.00;99.90;;;;;;5093584;28;20043;-87
2022/09/21 09:39:29;;;;;;;0.00;0.00;;;11.20;99.90;;;;;;5099501;28;20047;-87
2022/09/21 09:42:21;;;;;;;0.10;0.10;;;10.90;99.90;;;;;;5086396;28;20047;-82
2022/09/21 09:45:11;;;;;;;0.10;0.10;;;10.90;99.90;;;;;;5097703;28;20047;-86
2022/09/21 09:47:49;;;;;;;0.10;0.10;;;10.80;99.90;;;;;;5086508;28;20070;-85
2022/09/21 09:50:22;;;;;;;0.10;0.10;;;10.90;99.90;;;;;;5085424;28;20041;-85
2022/09/21 09:52:53;;;;;;;0.00;0.00;;;10.80;99.90;;;;;;5099085;28;20044;-85
2022/09/21 09:55:24;;;;;;;0.00;0.00;;;10.90;99.90;;;;;;5101603;28;20444;-85
2022/09/21 09:57:54;;;;;;;0.10;0.10;;;11.00;99.90;;;;;;5103269;28;20048;-86
2022/09/21 10:00:21;;;;;;;0.00;0.00;;;11.10;99.90;;;;;;5076932;28;20046;-86
2022/09/21 10:02:50;;;;;;;0.03;0.03;;;11.10;99.90;;;;;;5083705;28;20607;-84
2022/09/21 10:05:24;;;;;;;0.00;0.00;;;11.00;99.90;;;;;;5098215;28;20418;-85
2022/09/21 10:07:51;;;;;;;0.08;0.08;;;11.10;99.90;;;;;;5097020;28;20460;-85
2022/09/21 10:10:32;;;;;;;0.00;0.00;;;11.10;99.90;;;;;;5073950;28;20289;-85
2022/09/21 10:13:11;;;;;;;0.00;0.00;;;11.20;99.90;;;;;;5086084;28;20118;-84
2022/09/21 10:15:44;;;;;;;0.00;0.00;;;11.30;99.90;;;;;;5073727;28;20048;-85
2022/09/21 10:18:18;;;;;;;0.00;0.00;;;11.30;99.90;;;;;;5083543;28;20056;-85
2022/09/21 10:20:58;;;;;;;0.00;0.00;;;11.40;99.90;;;;;;5076953;28;20040;-85
2022/09/21 10:23:27;;;;;;;0.00;0.00;;;11.60;99.90;;;;;;5074728;28;20047;-85
2022/09/21 10:26:02;;;;;;;0.00;0.00;;;11.60;99.90;;;;;;5085463;28;20484;-85
2022/09/21 10:28:29;;;;;;;0.10;0.10;;;11.70;99.90;;;;;;5078262;28;20048;-86
2022/09/21 10:31:09;;;;;;;0.10;0.10;;;11.80;99.90;;;;;;5088909;28;20054;-85
2022/09/21 10:33:48;;;;;;;0.00;0.00;;;11.80;99.90;;;;;;5077911;28;20044;-84
2022/09/21 10:36:29;;;;;;;0.00;0.00;;;11.90;99.90;;;;;;5089817;28;20042;-85
2022/09/21 10:39:18;;;;;;;0.00;0.00;;;12.00;99.90;;;;;;5083201;28;20040;-85
2022/09/21 10:42:00;;;;;;;0.00;0.00;;;12.20;99.90;;;;;;5089634;28;20504;-85
2022/09/21 10:44:34;;;;;;;0.00;0.00;;;12.20;99.90;;;;;;5080727;28;20054;-85
2022/09/21 10:47:14;;;;;;;0.00;0.00;;;12.10;99.90;;;;;;5081346;28;20050;-86
2022/09/21 10:49:46;;;;;;;0.00;0.00;;;12.30;99.90;;;;;;5083237;28;20396;-85
2022/09/21 10:52:12;;;;;;;;;;;12.40;99.90;;;;;;5095540;28;20048;-85
2022/09/21 10:54:40;;;;;;;0.00;0.00;;;12.50;99.90;;;;;;5103049;28;20298;-85
2022/09/21 10:57:15;;;;;;;0.00;0.00;;;12.60;99.90;;;;;;5089971;28;20147;-85
2022/09/21 10:59:43;;;;;;;0.00;0.00;;;;;;;;;;5099397;28;20036;-84
2022/09/21 11:02:35;;;;;;;0.00;0.00;;;12.70;99.90;;;;;;5082937;28;20044;-83
2022/09/21 11:05:10;;;;;;;0.00;0.00;;;12.80;99.90;;;;;;5080817;28;20055;-83
2022/09/21 11:07:43;;;;;;;0.00;0.00;;;13.00;99.90;;;;;;5075938;28;20147;-81
2022/09/21 11:10:18;;;;;;;0.00;0.00;;;13.00;99.90;;;;;;5085274;28;20044;-84
2022/09/21 11:12:55;;;;;;;0.00;0.00;;;13.10;99.90;;;;;;5086928;28;20044;-83
2022/09/21 11:15:45;;;;;;;0.00;0.00;;;13.20;99.90;;;;;;5072761;28;21182;-85
2022/09/21 11:18:19;;;;;;;0.10;0.10;;;13.20;99.90;;;;;;5081973;28;20044;-85
2022/09/21 11:20:48;;;;;;;0.00;0.00;;;13.30;99.90;;;;;;5086552;28;20046;-85
2022/09/21 11:23:40;;;;;;;0.00;0.00;;;13.40;99.90;;;;;;5076850;28;20041;-85
2022/09/21 11:26:13;;;;;;;0.00;0.00;;;13.40;99.90;;;;;;5073329;28;20041;-85
2022/09/21 11:28:46;;;;;;;0.00;0.00;;;13.40;99.90;;;;;;5086670;28;20037;-85
2022/09/21 11:31:41;;;;;;;0.00;0.00;;;13.50;99.90;;;;;;5079704;28;20514;-85
2022/09/21 11:34:24;;;;;;;0.00;0.00;;;13.50;99.90;;;;;;5067885;28;20474;-84
2022/09/21 11:37:01;;;;;;;0.00;0.00;;;13.50;99.90;;;;;;5078627;28;20044;-85
2022/09/21 11:39:36;;;;;;;0.00;0.00;;;13.60;99.90;;;;;;5087222;28;20076;-85
2022/09/21 11:42:15;;;;;;;0.00;0.00;;;13.70;99.90;;;;;;5081072;28;20484;-83
2022/09/21 11:44:51;;;;;;;0.00;0.00;;;13.70;99.90;;;;;;5090113;28;20070;-84
2022/09/21 11:47:50;;;;;;;0.00;0.00;;;13.70;99.90;;;;;;5075304;28;20456;-85
2022/09/21 11:50:31;;;;;;;0.00;0.00;;;13.80;99.90;;;;;;5081251;28;20044;-85
2022/09/21 11:53:15;;;;;;;0.00;0.00;;;13.80;99.90;;;;;;5090698;28;20036;-85
2022/09/21 11:56:08;;;;;;;0.00;0.00;;;13.90;99.90;;;;;;5087532;28;20075;-84
2022/09/21 11:58:42;;;;;;;0.00;0.00;;;14.00;99.90;;;;;;5061896;28;20059;-82
2022/09/21 12:01:23;;;;;;;0.00;0.00;;;14.20;99.90;;;;;;5081134;28;20050;-84
2022/09/21 12:04:12;;;;;;;0.00;0.00;;;14.10;99.90;;;;;;5055125;28;20037;-86
2022/09/21 12:06:51;;;;;;;0.00;0.00;;;14.10;99.90;;;;;;5069809;28;20040;-85
2022/09/21 12:09:42;;;;;;;0.00;0.00;;;14.20;99.90;;;;;;5082756;28;20040;-86
2022/09/21 12:12:13;;;;;;;0.00;0.00;;;14.30;99.90;;;;;;5075236;28;20052;-83
2022/09/21 12:14:49;;;;;;;0.00;0.00;;;14.30;99.90;;;;;;5081169;28;20040;-85
2022/09/21 12:17:23;;;;;;;0.00;0.00;;;14.50;99.90;;;;;;5078395;28;20049;-85
2022/09/21 12:20:01;;;;;;;0.00;0.00;;;14.60;99.80;;;;;;5077283;28;20115;-85
2022/09/21 12:22:33;;;;;;;0.00;0.00;;;14.50;99.90;;;;;;5083850;28;20047;-85
2022/09/21 12:25:11;;;;;;;0.00;0.00;;;14.60;99.90;;;;;;5083086;28;20074;-86
2022/09/21 12:27:41;;;;;;;0.00;0.00;;;14.60;99.90;;;;;;5075277;28;20506;-85
2022/09/21 12:30:12;;;;;;;0.00;0.00;;;14.80;99.90;;;;;;5081486;28;20060;-86
2022/09/21 12:32:52;;;;;;;0.00;0.00;;;14.80;99.90;;;;;;5074709;28;20233;-84
2022/09/21 12:35:26;;;;;;;0.00;0.00;;;14.80;99.90;;;;;;5084171;28;20044;-84
2022/09/21 12:37:58;;;;;;;0.00;0.00;;;14.90;99.90;;;;;;5080977;28;20043;-84
2022/09/21 12:40:36;;;;;;;0.00;0.00;;;14.80;99.90;;;;;;5074552;28;20043;-85
2022/09/21 12:43:12;;;;;;;0.00;0.00;;;14.70;99.70;;;;;;5084959;28;20063;-84
2022/09/21 12:45:42;;;;;;;0.00;0.00;;;14.70;99.60;;;;;;5077409;28;20323;-83
2022/09/21 12:48:20;;;;;;;0.00;0.00;;;14.80;99.90;;;;;;5071138;28;20539;-85
2022/09/21 12:50:53;;;;;;;0.00;0.00;;;14.90;99.90;;;;;;5072330;28;21758;-85
2022/09/21 12:53:24;;;;;;;0.00;0.00;;;15.00;99.50;;;;;;5078054;28;20036;-85
2022/09/21 12:56:00;;;;;;;0.00;0.00;;;15.20;99.90;;;;;;5081047;28;20032;-85
2022/09/21 12:58:43;;;;;;;0.00;0.00;;;15.30;99.90;;;;;;5076491;28;20456;-85
2022/09/21 13:01:22;;;;;;;0.00;0.00;;;15.50;99.90;;;;;;5071127;28;20101;-84
2022/09/21 13:04:00;;;;;;;0.00;0.00;;;15.40;99.90;;;;;;5069623;28;20389;-86
2022/09/21 13:07:08;;;;;;;0.00;0.00;;;15.50;98.80;;;;;;5063690;28;20163;-86
2022/09/21 13:09:40;;;;;;;0.00;0.00;;;15.50;97.30;;;;;;5077146;28;20055;-82
2022/09/21 13:12:10;;;;;;;0.00;0.00;;;15.60;97.20;;;;;;5074097;28;20355;-86
2022/09/21 13:14:46;;;;;;;0.00;0.00;;;15.60;97.10;;;;;;5083125;28;20457;-86
2022/09/21 13:17:21;;;;;;;0.00;0.00;;;15.70;97.70;;;;;;5076530;28;20124;-86
2022/09/21 13:19:59;;;;;;;0.00;0.00;;;15.70;96.90;;;;;;5072418;28;20052;-85
2022/09/21 13:22:30;;;;;;;0.00;0.00;;;15.80;97.70;;;;;;5071474;28;20056;-85
2022/09/21 13:25:02;;;;;;;0.00;0.00;;;15.90;97.00;;;;;;5076790;28;20180;-86